Nearby METAR Reports

 

KBFI - Seattle/Boeing, Washington, USA
Distance from station: S 4mi, 7km
Updated: 2018-01-18 22:53
Partly cloudy
Partly cloudy
 Wind from SSE
Wind: SSE 8 mph , 13 km/h
Temperature: 39°F , 4°C
Wind Chill: 33°F , 1°C
Dew Point: 37°F , 3°C
Humidity: 93%
Barometer: 29.81 inHg , 1009.5 hPa
Clouds: Partly cloudy
Visibility: 10 miles , 16 km
Cloud details: Few Clouds 7000 ft
Few Clouds 9000 ft
Partly cloudy 10000 ft
2018/01/19 06:53 KBFI 190653Z 15007KT 10SM FEW070 FEW090 SCT100 04/03 A2981 RMK AO2 SLP093 T00390028
KRNT - Renton, Washington, USA
Distance from station: SSE 9mi, 14km
Updated: 2018-01-18 22:53
Partly cloudy
Partly cloudy
 Wind from calm
Wind: Calm
Temperature: 39°F , 4°C
Dew Point: 37°F , 3°C
Humidity: 93%
Barometer: 29.81 inHg , 1009.5 hPa
Clouds: Partly cloudy
Visibility: 10 miles , 16 km
Cloud details: Few Clouds 5000 ft
Few Clouds 7000 ft
Partly cloudy 9000 ft
2018/01/19 06:53 KRNT 190653Z AUTO 00000KT 10SM FEW050 FEW070 SCT090 04/03 A2981 RMK AO2 SLP099 T00440033
 
KSEA - Seattle/Metro, Washington, USA
Distance from station: S 11mi, 18km
Updated: 2018-01-18 22:53
Mostly cloudy
Mostly cloudy
 Wind from S
Wind: S 9 mph , 15 km/h
Temperature: 41°F , 5°C
Wind Chill: 35°F , 2°C
Dew Point: 36°F , 2°C
Humidity: 81%
Barometer: 29.79 inHg , 1008.8 hPa
Clouds: Mostly cloudy
Visibility: 10 miles , 16 km
Cloud details: Few Clouds 5000 ft
Partly cloudy 6500 ft
Mostly cloudy 9000 ft
2018/01/19 06:53 KSEA 190653Z 17008KT 10SM FEW050 SCT065 BKN090 05/02 A2979 RMK AO2 SLP097 T00500022
KPAE - Everett, Washington, USA
Distance from station: N 21mi, 34km
Updated: 2018-01-18 22:53
Overcast
Overcast
 Wind from ESE
Wind: ESE 12 mph , 19 km/h
Temperature: 41°F , 5°C
Wind Chill: 34°F , 1°C
Dew Point: 37°F , 3°C
Humidity: 87%
Barometer: 29.80 inHg , 1009.1 hPa
Clouds: Overcast
Visibility: 10 miles , 16 km
Cloud details: Partly cloudy 4200 ft
Overcast 5500 ft
2018/01/19 06:53 KPAE 190653Z AUTO 12010KT 10SM SCT042 OVC055 05/03 A2980 RMK AO2 SLP095 T00500028
 
KPWT - Bremerton Ntnl, Washington, USA
Distance from station: WSW 22mi, 35km
Updated: 2018-01-18 22:56
Light rain, Overcast
Light rain, Overcast
 Wind from SSW
Wind: SSW 8 mph , 13 km/h
Temperature: 39°F , 4°C
Wind Chill: 33°F , 1°C
Dew Point: 39°F , 4°C
Humidity: 100%
Barometer: 29.79 inHg , 1008.8 hPa
Summary: Light rain
Clouds: Overcast
Visibility: 10 miles , 16 km
Cloud details: Few Clouds 1100 ft
Mostly cloudy 3700 ft
Overcast 4600 ft
2018/01/19 06:56 KPWT 190656Z AUTO 20007KT 10SM -RA FEW011 BKN037 OVC046 04/04 A2979 RMK AO2 RAB03 SLP107 P0002 T00440039
KTIW - Tacoma, Washington, USA
Distance from station: SSW 27mi, 43km
Updated: 2018-01-18 22:53
Mostly cloudy
Mostly cloudy
 Wind from S
Wind: S 9 mph , 15 km/h
Temperature: 41°F , 5°C
Wind Chill: 35°F , 2°C
Dew Point: 37°F , 3°C
Humidity: 87%
Barometer: 29.80 inHg , 1009.1 hPa
Clouds: Mostly cloudy
Visibility: 10 miles , 16 km
Cloud details: Mostly cloudy 7500 ft
Mostly cloudy 8500 ft
2018/01/19 06:53 KTIW 190653Z AUTO 18008KT 10SM BKN075 BKN085 05/03 A2980 RMK AO2 RAB17E31 SLP094 P0000 T00500028
 
KTCM - Tacoma/Mc Chord, Washington, USA
Distance from station: S 35mi, 56km
Updated: 2018-01-18 22:58
Few Clouds
Few Clouds
 Wind from S
Wind: S 10 mph , 17 km/h
Temperature: 37°F , 3°C
Wind Chill: 30°F , -1°C
Dew Point: 37°F , 3°C
Humidity: 100%
Barometer: 29.81 inHg , 1009.5 hPa
Clouds: Few Clouds
Visibility: 10 miles , 16 km
Cloud details: Few Clouds 13000 ft
2018/01/19 06:58 KTCM 190658Z AUTO 19009KT 10SM FEW130 03/03 A2981 RMK AO2 SLP100 T00340034 $
KPLU - Puyallup/Thun, Washington, USA
Distance from station: S 35mi, 57km
Updated: 2018-01-18 23:35
Mostly cloudy
Mostly cloudy
 Wind from S
Wind: S 3 mph , 6 km/h
Temperature: 41°F , 5°C
Dew Point: 37°F , 3°C
Humidity: 87%
Barometer: 29.81 inHg , 1009.5 hPa
Clouds: Mostly cloudy
Visibility: 10 miles , 16 km
Cloud details: Partly cloudy 3800 ft
Partly cloudy 8000 ft
Mostly cloudy 11000 ft
2018/01/19 07:35 KPLU 190735Z AUTO 18003KT 10SM SCT038 SCT080 BKN110 05/03 A2981 RMK AO2
 
K0S9 - Port Townsend, Washington, USA
Distance from station: NW 38mi, 62km
Updated: 2018-01-18 23:35
Mostly cloudy
Mostly cloudy
 Wind from S
Wind: S 10 mph , 17 km/h, Gust: 21 mph , 33 km/h
Temperature: 43°F , 6°C
Wind Chill: 37°F , 3°C
Dew Point: 39°F , 4°C
Humidity: 87%
Barometer: 29.76 inHg , 1007.8 hPa
Clouds: Mostly cloudy
Visibility: 10 miles , 16 km
Cloud details: Mostly cloudy 1400 ft
Mostly cloudy 3000 ft
Mostly cloudy 8000 ft
2018/01/19 07:35 K0S9 190735Z AUTO 19009G18KT 10SM BKN014 BKN030 BKN080 06/04 A2976 RMK AO2
KAWO - Arlington Muni, Washington, USA
Distance from station: N 39mi, 63km
Updated: 2018-01-18 22:56
Overcast
Overcast
 Wind from S
Wind: S 9 mph , 15 km/h
Temperature: 43°F , 6°C
Wind Chill: 38°F , 3°C
Dew Point: 37°F , 3°C
Humidity: 81%
Barometer: 29.81 inHg , 1009.5 hPa
Clouds: Overcast
Visibility: 10 miles , 16 km
Cloud details: Partly cloudy 3100 ft
Mostly cloudy 4200 ft
Overcast 12000 ft
2018/01/19 06:56 KAWO 190656Z AUTO 18008KT 10SM SCT031 BKN042 OVC120 06/03 A2981 RMK AO2 RAB02E19 SLP100 P0000 T00560033
 
KGRF - Fort Lewis/Gray, Washington, USA
Distance from station: SSW 39mi, 64km
Updated: 2018-01-18 22:58
Few Clouds
Few Clouds
 Wind from SSE
Wind: SSE 6 mph , 9 km/h
Temperature: 37°F , 3°C
Wind Chill: 32°F , 0°C
Dew Point: 37°F , 3°C
Humidity: 100%
Barometer: 29.81 inHg , 1009.5 hPa
Clouds: Few Clouds
Visibility: 10 miles , 16 km
Cloud details: Few Clouds 13000 ft
2018/01/19 06:58 KGRF 190658Z AUTO 15005KT 10SM FEW130 03/03 A2981 RMK AO2 SLP100 T00340033 $
KSHN - Shelton, Washington, USA
Distance from station: SW 46mi, 75km
Updated: 2018-01-18 22:53
Partly cloudy
Partly cloudy
 Wind from ESE
Wind: ESE 6 mph , 9 km/h
Temperature: 39°F , 4°C
Wind Chill: 35°F , 2°C
Dew Point: 37°F , 3°C
Humidity: 93%
Barometer: 29.78 inHg , 1008.5 hPa
Clouds: Partly cloudy
Visibility: 10 miles , 16 km
Cloud details: Partly cloudy 4100 ft
Partly cloudy 7500 ft
2018/01/19 06:53 KSHN 190653Z AUTO 12005KT 10SM SCT041 SCT075 04/03 A2978 RMK AO2 RAE18 SLP088 P0002 T00440033 $